Time;durP1;ratioP1;P1;durP2;ratioP2;P2;SDS_P1;SDS_P2;PMS_P1;PMS_P2;Temp;Humidity;BMP_temperature;BMP_pressure;BME280_temperature;BME280_humidity;BME280_pressure;Samples;Min_cycle;Max_cycle;Signal;HPM_P1;HPM_P2
2023/01/26 00:02:11;;;;;;;27.57;13.37;;;;;;;-1.76;94.58;101723.84;5028062;28;20682;-81
2023/01/26 00:04:38;;;;;;;28.70;15.17;;;;;;;-1.77;94.60;101722.09;5032887;28;20655;-80
2023/01/26 00:07:04;;;;;;;31.80;14.83;;;;;;;-1.76;94.56;101717.75;5035110;28;20226;-79
2023/01/26 00:09:31;;;;;;;31.37;13.63;;;;;;;-1.76;94.90;101721.25;5031756;28;20217;-80
2023/01/26 00:11:57;;;;;;;36.93;15.33;;;;;;;-1.75;94.92;101729.94;5042641;28;20202;-79
2023/01/26 00:14:24;;;;;;;28.67;13.83;;;;;;;-1.74;94.88;101721.25;5030334;28;20206;-81
2023/01/26 00:16:52;;;;;;;32.97;16.30;;;;;;;-1.75;94.47;101724.72;5029759;28;20237;-79
2023/01/26 00:19:20;;;;;;;33.10;16.33;;;;;;;-1.78;94.39;101722.97;5040345;28;20259;-79
2023/01/26 00:21:46;;;;;;;26.43;13.20;;;;;;;-1.80;94.40;101719.50;5033352;28;20792;-81
2023/01/26 00:24:13;;;;;;;27.87;14.43;;;;;;;-1.83;94.86;101711.66;5026314;28;20685;-79
2023/01/26 00:26:39;;;;;;;28.70;13.23;;;;;;;-1.86;94.12;101709.03;5022809;28;20230;-80
2023/01/26 00:29:06;;;;;;;34.77;15.00;;;;;;;-1.88;94.55;101715.09;5031998;28;20215;-81
2023/01/26 00:31:32;;;;;;;27.43;13.07;;;;;;;-1.93;94.28;101701.16;5035140;28;20986;-81
2023/01/26 00:33:59;;;;;;;36.80;15.30;;;;;;;-1.93;94.20;101703.75;5028283;28;20205;-80
2023/01/26 00:36:27;;;;;;;33.17;14.70;;;;;;;-1.95;94.22;101697.66;5036182;28;20719;-81
2023/01/26 00:38:53;;;;;;;37.73;15.90;;;;;;;-1.95;94.45;101697.66;5031269;28;20257;-80
2023/01/26 00:44:04;;;;;;;33.70;13.47;;;;;;;-1.97;94.49;101707.25;5038423;28;20202;-80
2023/01/26 00:46:31;;;;;;;39.20;15.67;;;;;;;-2.00;93.76;101700.25;5027849;28;20226;-78
2023/01/26 00:48:59;;;;;;;36.70;15.13;;;;;;;-2.01;93.73;101689.81;5031922;28;20206;-81
2023/01/26 00:51:27;;;;;;;39.47;15.57;;;;;;;-2.01;93.80;101695.03;5035398;28;20256;-80
2023/01/26 00:53:54;;;;;;;38.27;14.43;;;;;;;-2.01;93.90;101697.66;5027605;28;20576;-80
2023/01/26 00:56:20;;;;;;;35.10;15.90;;;;;;;-2.01;93.80;101690.69;5032359;28;20737;-81
2023/01/26 00:58:47;;;;;;;40.73;16.30;;;;;;;-2.00;94.22;101687.22;5032658;28;20210;-80
2023/01/26 01:01:13;;;;;;;39.87;16.40;;;;;;;-1.99;93.86;101688.97;5032019;28;20611;-79
2023/01/26 01:03:40;;;;;;;42.03;16.50;;;;;;;-1.99;94.02;101686.34;5034167;28;20207;-80
2023/01/26 01:06:06;;;;;;;46.40;18.23;;;;;;;-1.96;94.14;101688.06;5032257;28;20238;-81
2023/01/26 01:08:34;;;;;;;49.17;17.30;;;;;;;-1.97;94.44;101674.16;5031281;28;20217;-80
2023/01/26 01:11:06;;;;;;;43.97;15.70;;;;;;;-1.93;93.97;101681.13;5033320;28;20212;-81
2023/01/26 01:13:32;;;;;;;47.83;17.53;;;;;;;-1.94;94.06;101670.69;5033241;28;20647;-83
2023/01/26 01:15:59;;;;;;;51.57;18.23;;;;;;;-1.93;94.12;101664.59;5032054;28;20561;-84
2023/01/26 01:18:25;;;;;;;49.70;18.83;;;;;;;-1.91;94.19;101665.47;5030876;28;20213;-82
2023/01/26 01:20:52;;;;;;;47.40;18.83;;;;;;;-1.92;94.25;101659.38;5031966;28;20205;-82
2023/01/26 01:23:19;;;;;;;48.50;19.33;;;;;;;-1.92;94.10;101669.81;5033563;28;20218;-82
2023/01/26 01:25:47;;;;;;;56.33;18.30;;;;;;;-1.93;94.44;101657.63;5029836;28;20234;-81
2023/01/26 01:28:13;;;;;;;49.50;17.63;;;;;;;-1.92;94.16;101658.50;5029236;28;20217;-83
2023/01/26 01:30:40;;;;;;;53.70;20.37;;;;;;;-1.93;94.49;101657.63;5034135;28;20277;-84
2023/01/26 01:33:06;;;;;;;53.10;20.03;;;;;;;-1.93;94.42;101657.63;5036607;28;20297;-83
2023/01/26 01:35:34;;;;;;;61.37;19.43;;;;;;;-1.93;93.90;101655.03;5030689;28;20781;-84
2023/01/26 01:38:01;;;;;;;58.57;20.20;;;;;;;-1.92;94.54;101648.06;5039789;28;20198;-82
2023/01/26 01:40:27;;;;;;;54.57;21.43;;;;;;;-1.92;94.10;101653.28;5027883;28;20203;-82
2023/01/26 01:42:55;;;;;;;57.27;21.40;;;;;;;-1.93;94.43;101651.53;5032203;28;20198;-83
2023/01/26 01:45:41;;;;;;;51.83;19.73;;;;;;;-1.94;94.00;101644.56;5030173;28;20706;-83
2023/01/26 01:48:14;;;;;;;53.50;17.20;;;;;;;-1.91;93.94;101644.59;5029470;28;20229;-82
2023/01/26 01:50:42;;;;;;;60.07;21.13;;;;;;;-1.94;93.70;101645.44;5038375;28;20194;-82
2023/01/26 01:53:14;;;;;;;59.30;21.90;;;;;;;-1.97;93.45;101636.75;5034016;28;20207;-84
2023/01/26 01:55:41;;;;;;;65.80;22.07;;;;;;;-1.97;93.64;101637.59;5029457;28;20222;-83
2023/01/26 01:58:09;;;;;;;51.97;19.03;;;;;;;-1.97;93.58;101640.22;5039178;28;20210;-80
2023/01/26 02:00:36;;;;;;;62.70;21.13;;;;;;;-1.95;93.93;101632.38;5037883;28;20198;-83
2023/01/26 02:03:13;;;;;;;67.93;23.47;;;;;;;-1.96;93.97;101633.25;5032591;28;20217;-83
2023/01/26 02:05:48;;;;;;;64.13;22.47;;;;;;;-1.96;94.15;101628.03;5032214;28;20238;-80
2023/01/26 02:08:17;;;;;;;70.37;23.17;;;;;;;-1.94;93.73;101628.91;5032780;28;20226;-83
2023/01/26 02:10:47;;;;;;;70.23;22.43;;;;;;;-1.93;93.60;101617.59;5030193;28;20221;-82
2023/01/26 02:13:17;;;;;;;66.17;21.90;;;;;;;-1.94;93.59;101615.84;5043070;28;20210;-85
2023/01/26 02:15:44;;;;;;;72.33;22.63;;;;;;;-1.91;93.99;101618.47;5034154;28;20225;-85
2023/01/26 02:18:11;;;;;;;72.87;23.60;;;;;;;-1.91;94.10;101613.25;5034430;28;20260;-83
2023/01/26 02:20:45;;;;;;;75.93;23.80;;;;;;;-1.90;93.60;101612.41;5035169;28;20207;-84
2023/01/26 02:23:20;;;;;;;74.17;23.83;;;;;;;-1.90;93.78;101609.78;5027076;28;20203;-83
2023/01/26 02:26:10;;;;;;;80.57;24.63;;;;;;;-1.89;93.83;101607.19;5036314;28;20225;-83
2023/01/26 02:28:37;;;;;;;70.43;23.37;;;;;;;-1.89;94.01;101593.25;5027371;28;20210;-83
2023/01/26 02:31:03;;;;;;;78.80;24.83;;;;;;;-1.89;93.61;101596.75;5034937;28;20218;-82
2023/01/26 02:33:32;;;;;;;76.40;25.43;;;;;;;-1.88;94.07;101600.22;5028438;28;20214;-84
2023/01/26 02:35:59;;;;;;;77.90;25.20;;;;;;;-1.86;93.89;101601.09;5034923;28;20230;-82
2023/01/26 02:38:30;;;;;;;86.07;25.10;;;;;;;-1.87;94.08;101596.75;5032595;28;20210;-83
2023/01/26 02:41:02;;;;;;;83.60;25.47;;;;;;;-1.89;94.36;101593.25;5034558;28;20202;-84
2023/01/26 02:43:29;;;;;;;83.10;25.53;;;;;;;-1.90;94.10;101599.34;5024906;28;20210;-82
2023/01/26 02:45:56;;;;;;;69.73;24.50;;;;;;;-1.90;94.22;101591.50;5032070;28;20250;-81
2023/01/26 02:51:04;;;;;;;76.07;25.10;;;;;;;-1.87;93.76;101594.13;5025008;28;20210;-82
2023/01/26 02:53:30;;;;;;;69.87;24.20;;;;;;;-1.86;93.89;101585.44;5034902;28;20202;-84
2023/01/26 02:55:56;;;;;;;86.97;24.57;;;;;;;-1.84;94.22;101588.94;5031168;28;20226;-81
2023/01/26 02:58:22;;;;;;;80.53;23.87;;;;;;;-1.83;94.09;101591.53;5034736;28;20210;-82
2023/01/26 03:00:50;;;;;;;76.30;23.50;;;;;;;-1.83;94.02;101588.06;5029965;28;20209;-82
2023/01/26 03:03:22;;;;;;;86.40;24.90;;;;;;;-1.82;94.08;101588.06;5030833;28;20229;-83
2023/01/26 03:05:49;;;;;;;68.73;22.77;;;;;;;-1.80;94.02;101583.72;5032404;28;20226;-83
2023/01/26 03:08:15;;;;;;;70.00;22.13;;;;;;;-1.79;93.85;101579.34;5028748;28;20226;-83
2023/01/26 03:10:42;;;;;;;71.97;22.77;;;;;;;-1.78;94.11;101573.25;5033420;28;20199;-82
2023/01/26 03:13:08;;;;;;;75.87;21.57;;;;;;;-1.78;94.53;101576.72;5032515;28;20210;-82
2023/01/26 03:15:42;;;;;;;69.60;23.33;;;;;;;-1.76;94.38;101579.34;5030980;28;20233;-82
2023/01/26 03:27:25;;;;;;;63.93;21.37;;;;;;;-1.75;94.04;101575.88;5036411;28;20658;-83
2023/01/26 03:29:15;;;;;;;56.40;17.87;;;;;;;-1.67;94.28;101578.50;5018146;28;20256;-81
2023/01/26 03:31:42;;;;;;;58.87;18.73;;;;;;;-1.66;94.53;101581.13;5025626;28;20660;-83
2023/01/26 03:34:10;;;;;;;52.13;17.40;;;;;;;-1.65;94.81;101571.56;5030890;28;20206;-83
2023/01/26 03:36:36;;;;;;;47.17;17.00;;;;;;;-1.66;94.70;101570.69;5027322;28;20234;-83
2023/01/26 03:39:03;;;;;;;46.90;16.20;;;;;;;-1.64;94.29;101575.91;5022475;28;20252;-82
2023/01/26 03:57:55;;;;;;;46.77;14.97;;;;;;;-1.69;94.46;101564.56;5025002;28;20713;-81
2023/01/26 04:00:21;;;;;;;40.37;15.63;;;;;;;-1.68;94.95;101566.31;5017863;28;20628;-81
2023/01/26 04:08:23;;;;;;;43.60;14.57;;;;;;;-1.62;94.92;101569.81;5030241;28;20340;-81
2023/01/26 04:10:51;;;;;;;52.00;15.57;;;;;;;-1.59;95.03;101561.97;5030148;28;20198;-80
2023/01/26 04:21:34;;;;;;;49.57;16.13;;;;;;;-1.60;95.39;101555.00;5042405;28;20575;-80
2023/01/26 04:24:08;;;;;;;46.67;15.73;;;;;;;-1.58;95.13;101547.16;5029752;28;20260;-79
2023/01/26 04:26:35;;;;;;;45.60;15.87;;;;;;;-1.59;95.40;101546.28;5025340;28;20229;-80
2023/01/26 04:29:02;;;;;;;51.93;16.57;;;;;;;-1.58;95.29;101542.81;5025746;28;20206;-81
2023/01/26 04:31:28;;;;;;;52.10;16.10;;;;;;;-1.58;95.81;101544.56;5030892;28;20233;-79
2023/01/26 04:33:55;;;;;;;57.93;17.67;;;;;;;-1.58;95.28;101545.41;5029164;28;20678;-81
2023/01/26 04:36:22;;;;;;;59.67;17.13;;;;;;;-1.57;95.79;101547.16;5031019;28;20226;-80
2023/01/26 04:38:49;;;;;;;56.57;18.53;;;;;;;-1.55;96.18;101544.56;5033357;28;20660;-81
2023/01/26 04:41:16;;;;;;;63.43;20.13;;;;;;;-1.53;96.17;101537.59;5024667;28;20277;-81
2023/01/26 04:43:43;;;;;;;64.10;20.20;;;;;;;-1.53;96.43;101535.84;5032435;28;20242;-80
2023/01/26 04:46:09;;;;;;;72.93;21.77;;;;;;;-1.50;96.28;101528.03;5034190;28;20257;-80
2023/01/26 04:48:36;;;;;;;71.13;22.33;;;;;;;-1.49;96.42;101531.50;5034137;28;20228;-80
2023/01/26 04:51:07;;;;;;;72.53;22.57;;;;;;;-1.47;96.51;101537.59;5026055;28;20655;-79
2023/01/26 04:53:34;;;;;;;76.73;22.47;;;;;;;-1.47;96.55;101527.16;5030797;28;20194;-79
2023/01/26 04:56:02;;;;;;;64.47;20.10;;;;;;;-1.46;96.55;101534.13;5026956;28;20605;-80
2023/01/26 04:58:28;;;;;;;81.33;23.43;;;;;;;-1.47;96.31;101535.88;5028081;28;20632;-81
2023/01/26 05:00:56;;;;;;;70.17;22.27;;;;;;;-1.48;96.70;101531.50;5034713;28;20462;-79
2023/01/26 05:03:23;;;;;;;65.77;21.30;;;;;;;-1.49;96.34;101529.75;5033003;28;20241;-79
2023/01/26 05:05:51;;;;;;;73.63;21.17;;;;;;;-1.49;96.35;101529.75;5046183;28;20225;-81
2023/01/26 05:08:19;;;;;;;76.23;23.47;;;;;;;-1.50;96.54;101530.63;5046476;28;20686;-80
2023/01/26 05:10:46;;;;;;;76.77;23.00;;;;;;;-1.49;96.45;101523.66;5034200;28;20202;-79
2023/01/26 05:13:14;;;;;;;74.63;21.03;;;;;;;-1.50;96.85;101509.75;5029202;28;20214;-80
2023/01/26 05:15:41;;;;;;;77.63;22.07;;;;;;;-1.50;96.53;101520.19;5040635;28;20230;-79
2023/01/26 05:18:07;;;;;;;74.70;21.60;;;;;;;-1.49;96.56;101518.44;5039335;28;20206;-80
2023/01/26 05:20:34;;;;;;;71.33;22.27;;;;;;;-1.51;96.53;101521.06;5042260;28;20233;-81
2023/01/26 05:23:00;;;;;;;74.23;21.50;;;;;;;-1.51;97.07;101520.19;5031658;28;20229;-80
2023/01/26 05:25:36;;;;;;;73.77;22.30;;;;;;;-1.48;97.46;101528.03;5043668;28;20568;-80
2023/01/26 05:28:02;;;;;;;64.43;20.63;;;;;;;-1.47;97.58;101519.31;5031767;28;20308;-80
2023/01/26 05:30:30;;;;;;;78.53;22.10;;;;;;;-1.46;97.66;101526.28;5039062;28;20206;-80
2023/01/26 05:33:00;;;;;;;73.00;20.37;;;;;;;-1.45;97.65;101523.69;5024690;28;20206;-81
2023/01/26 05:35:27;;;;;;;66.47;19.87;;;;;;;-1.43;97.75;101528.88;5022465;28;20253;-79
2023/01/26 05:37:55;;;;;;;65.97;21.87;;;;;;;-1.43;97.92;101534.09;5039040;28;20778;-81
2023/01/26 05:40:21;;;;;;;70.77;22.57;;;;;;;-1.43;97.57;101528.88;5040402;28;20209;-80
2023/01/26 05:42:48;;;;;;;72.10;21.73;;;;;;;-1.43;97.91;101524.53;5037598;28;20245;-80
2023/01/26 05:45:15;;;;;;;68.57;22.23;;;;;;;-1.41;97.83;101532.34;5032357;28;20206;-79
2023/01/26 05:47:44;;;;;;;68.40;22.20;;;;;;;-1.41;98.32;101528.00;5036306;28;20225;-81
2023/01/26 05:50:12;;;;;;;74.37;21.47;;;;;;;-1.42;98.23;101526.25;5036826;28;20230;-79
2023/01/26 05:52:39;;;;;;;68.03;23.23;;;;;;;-1.44;98.57;101522.81;5040849;28;20205;-81
2023/01/26 05:55:06;;;;;;;71.03;20.07;;;;;;;-1.43;98.40;101526.25;5030669;28;20210;-81
2023/01/26 05:57:33;;;;;;;72.20;21.03;;;;;;;-1.43;98.16;101529.75;5029394;28;20624;-81
2023/01/26 05:59:59;;;;;;;83.33;22.07;;;;;;;-1.43;98.49;101536.72;5035414;28;20218;-80
2023/01/26 06:02:27;;;;;;;71.27;20.80;;;;;;;-1.43;98.58;101529.75;5035248;28;20218;-81
2023/01/26 06:04:54;;;;;;;77.53;22.80;;;;;;;-1.42;98.47;101539.31;5041354;28;20232;-79
2023/01/26 06:07:21;;;;;;;82.27;23.40;;;;;;;-1.43;98.42;101536.72;5033512;28;20233;-80
2023/01/26 06:09:50;;;;;;;75.27;20.27;;;;;;;-1.44;98.45;101535.88;5040105;28;20217;-80
2023/01/26 06:12:18;;;;;;;75.60;23.33;;;;;;;-1.44;98.59;101535.88;5038807;28;20210;-79
2023/01/26 06:14:45;;;;;;;74.07;22.10;;;;;;;-1.43;98.82;101534.09;5030421;28;20213;-80
2023/01/26 06:17:12;;;;;;;90.70;25.80;;;;;;;-1.44;98.46;101533.25;5024930;28;20214;-80
2023/01/26 06:19:38;;;;;;;90.13;23.27;;;;;;;-1.45;99.22;101536.75;5037497;28;20202;-80
2023/01/26 06:22:07;;;;;;;90.63;24.40;;;;;;;-1.44;99.23;101538.47;5032187;28;20199;-79
2023/01/26 06:24:34;;;;;;;88.87;25.20;;;;;;;-1.44;99.06;101538.47;5036741;28;20206;-80
2023/01/26 06:27:00;;;;;;;90.67;25.00;;;;;;;-1.44;99.60;101548.06;5033385;28;20272;-79
2023/01/26 06:29:27;;;;;;;85.20;24.37;;;;;;;-1.44;99.26;101548.06;5036519;28;20828;-81
2023/01/26 06:31:53;;;;;;;91.93;26.20;;;;;;;-1.43;99.01;101550.66;5032532;28;20198;-80
2023/01/26 06:34:20;;;;;;;90.90;25.87;;;;;;;-1.42;99.61;101552.38;5031995;28;20206;-81
2023/01/26 06:36:46;;;;;;;88.60;26.57;;;;;;;-1.42;99.82;101551.50;5034209;28;20233;-81
2023/01/26 06:39:15;;;;;;;90.43;25.70;;;;;;;-1.42;99.56;101551.50;5027289;28;20207;-82
2023/01/26 06:41:43;;;;;;;90.73;25.70;;;;;;;-1.40;99.79;101557.63;5030306;28;20225;-80
2023/01/26 06:44:09;;;;;;;95.60;26.80;;;;;;;-1.40;99.80;101550.66;5030813;28;20658;-80
2023/01/26 06:46:36;;;;;;;101.77;27.90;;;;;;;-1.40;100.00;101545.44;5035005;28;20240;-80
2023/01/26 06:49:03;;;;;;;88.80;25.63;;;;;;;-1.37;100.00;101561.97;5036906;28;20225;-79
2023/01/26 06:51:47;;;;;;;83.10;24.60;;;;;;;-1.37;100.00;101554.13;5031529;28;20205;-80
2023/01/26 06:54:15;;;;;;;88.57;24.33;;;;;;;-1.37;100.00;101562.84;5030040;28;20578;-81
2023/01/26 06:56:42;;;;;;;87.53;25.17;;;;;;;-1.37;100.00;101549.78;5026596;28;20697;-79
2023/01/26 06:59:09;;;;;;;94.77;25.93;;;;;;;-1.35;100.00;101560.25;5032801;28;20203;-79
2023/01/26 07:01:38;;;;;;;89.33;25.33;;;;;;;-1.36;100.00;101559.38;5032406;28;20256;-79
2023/01/26 07:04:05;;;;;;;97.43;27.53;;;;;;;-1.36;100.00;101555.88;5024048;28;20203;-79
2023/01/26 07:06:31;;;;;;;89.13;25.03;;;;;;;-1.36;100.00;101563.72;5031353;28;20682;-80
2023/01/26 07:08:58;;;;;;;103.00;25.90;;;;;;;-1.36;100.00;101555.88;5024735;28;20218;-80
2023/01/26 07:11:28;;;;;;;95.73;27.93;;;;;;;-1.36;100.00;101553.28;5027801;28;20206;-79
2023/01/26 07:13:55;;;;;;;83.60;25.53;;;;;;;-1.37;100.00;101555.00;5021332;28;20343;-79
2023/01/26 07:16:21;;;;;;;86.17;25.30;;;;;;;-1.37;100.00;101560.25;5031976;28;20233;-78
2023/01/26 07:18:48;;;;;;;84.90;24.97;;;;;;;-1.37;100.00;101556.75;5030945;28;20205;-79
2023/01/26 07:21:18;;;;;;;79.07;25.23;;;;;;;-1.38;100.00;101557.63;5025487;28;20202;-79
2023/01/26 07:23:44;;;;;;;84.97;25.57;;;;;;;-1.37;100.00;101559.38;5028129;28;20340;-79
2023/01/26 07:26:11;;;;;;;97.70;27.90;;;;;;;-1.35;100.00;101562.84;5031830;28;20222;-81
2023/01/26 07:28:39;;;;;;;79.20;22.57;;;;;;;-1.33;100.00;101562.00;5031104;28;20233;-81
2023/01/26 07:31:06;;;;;;;95.90;26.93;;;;;;;-1.32;100.00;101557.63;5031256;28;20214;-81
2023/01/26 07:33:34;;;;;;;93.13;26.57;;;;;;;-1.33;100.00;101563.72;5030305;28;20202;-81
2023/01/26 07:36:01;;;;;;;93.33;26.40;;;;;;;-1.33;100.00;101566.34;5029011;28;20218;-81
2023/01/26 07:38:28;;;;;;;88.17;25.07;;;;;;;-1.33;100.00;101562.00;5036223;28;20214;-81
2023/01/26 07:40:55;;;;;;;89.90;24.03;;;;;;;-1.31;100.00;101562.00;5033873;28;20818;-81
2023/01/26 07:43:21;;;;;;;91.60;25.13;;;;;;;-1.29;100.00;101560.25;5023658;28;20209;-78
2023/01/26 07:45:51;;;;;;;83.77;24.40;;;;;;;-1.30;100.00;101566.34;5021890;28;20714;-80
2023/01/26 07:48:18;;;;;;;81.53;24.23;;;;;;;-1.31;100.00;101562.88;5032518;28;20264;-80
2023/01/26 07:50:46;;;;;;;69.60;23.57;;;;;;;-1.31;100.00;101564.59;5034461;28;20240;-79
2023/01/26 07:53:14;;;;;;;77.30;24.57;;;;;;;-1.30;100.00;101563.72;5031114;28;20205;-80
2023/01/26 07:55:42;;;;;;;78.00;23.67;;;;;;;-1.30;100.00;101569.84;5031930;28;20796;-79
2023/01/26 07:58:09;;;;;;;87.83;25.23;;;;;;;-1.27;100.00;101571.56;5031915;28;20234;-79
2023/01/26 08:00:35;;;;;;;79.03;24.00;;;;;;;-1.25;100.00;101567.19;5025811;28;20675;-81
2023/01/26 08:03:03;;;;;;;83.50;25.50;;;;;;;-1.24;100.00;101567.19;5026469;28;20206;-79
2023/01/26 08:05:30;;;;;;;73.43;21.70;;;;;;;-1.21;100.00;101566.31;5029388;28;20222;-80
2023/01/26 08:07:57;;;;;;;81.07;24.53;;;;;;;-1.22;100.00;101568.06;5031041;28;20585;-78
2023/01/26 08:10:23;;;;;;;81.37;25.13;;;;;;;-1.20;100.00;101568.94;5022917;28;20679;-81
2023/01/26 08:12:50;;;;;;;64.97;21.60;;;;;;;-1.19;100.00;101565.47;5030508;28;20836;-81
2023/01/26 08:15:16;;;;;;;79.50;23.57;;;;;;;-1.18;100.00;101559.34;5032491;28;20214;-80
2023/01/26 08:17:43;;;;;;;74.03;22.47;;;;;;;-1.16;100.00;101565.47;5032966;28;20206;-81
2023/01/26 08:20:12;;;;;;;82.83;24.33;;;;;;;-1.17;100.00;101563.72;5034724;28;20207;-81
2023/01/26 08:22:39;;;;;;;67.33;22.47;;;;;;;-1.15;100.00;101563.72;5039084;28;20686;-81
2023/01/26 08:25:06;;;;;;;68.87;24.07;;;;;;;-1.16;100.00;101568.06;5030792;28;20214;-81
2023/01/26 08:27:33;;;;;;;77.50;22.93;;;;;;;-1.13;100.00;101567.19;5029903;28;20571;-81
2023/01/26 08:29:59;;;;;;;74.97;21.90;;;;;;;-1.11;100.00;101573.31;5030586;28;20233;-81
2023/01/26 08:32:26;;;;;;;79.37;23.67;;;;;;;-1.09;100.00;101568.94;5029983;28;20244;-82
2023/01/26 08:34:52;;;;;;;66.83;22.67;;;;;;;-1.06;100.00;101568.91;5032188;28;20292;-81
2023/01/26 08:37:20;;;;;;;64.53;21.53;;;;;;;-1.05;100.00;101568.91;5021527;28;20225;-82
2023/01/26 08:39:46;;;;;;;66.03;22.90;;;;;;;-1.02;100.00;101565.44;5038420;28;20206;-81
2023/01/26 08:42:13;;;;;;;65.27;21.63;;;;;;;-0.99;100.00;101560.22;5058207;28;20209;-81
2023/01/26 08:44:39;;;;;;;65.33;21.53;;;;;;;-0.96;100.00;101567.19;5040838;28;20214;-81
2023/01/26 08:47:05;;;;;;;65.10;21.77;;;;;;;-0.97;100.00;101571.53;5038232;28;20221;-79
2023/01/26 08:49:32;;;;;;;65.87;21.80;;;;;;;-0.95;100.00;101564.56;5038374;28;20226;-81
2023/01/26 08:51:58;;;;;;;66.17;22.47;;;;;;;-0.90;100.00;101577.63;5038016;28;20209;-82
2023/01/26 08:54:27;;;;;;;63.70;21.40;;;;;;;-0.87;100.00;101572.38;5038143;28;20723;-82
2023/01/26 08:56:54;;;;;;;68.57;21.77;;;;;;;-0.86;100.00;101571.50;5038612;28;20228;-82
2023/01/26 08:59:20;;;;;;;65.77;23.20;;;;;;;-0.82;100.00;101570.63;5038603;28;20209;-81
2023/01/26 09:01:48;;;;;;;66.60;21.57;;;;;;;-0.80;100.00;101572.38;5038944;28;20210;-80
2023/01/26 09:04:14;;;;;;;67.77;22.93;;;;;;;-0.77;100.00;101575.00;5038558;28;20704;-81
2023/01/26 09:06:41;;;;;;;74.33;23.60;;;;;;;-0.75;100.00;101582.84;5038210;28;20614;-80
2023/01/26 09:09:11;;;;;;;78.63;23.93;;;;;;;-0.72;100.00;101578.44;5038380;28;20229;-80
2023/01/26 09:11:39;;;;;;;72.20;25.27;;;;;;;-0.69;100.00;101582.81;5038468;28;20639;-82
2023/01/26 09:14:06;;;;;;;70.50;23.20;;;;;;;-0.68;100.00;101581.94;5037706;28;20210;-82
2023/01/26 09:16:32;;;;;;;66.50;23.57;;;;;;;-0.65;100.00;101573.22;5038024;28;20234;-82
2023/01/26 09:18:59;;;;;;;61.03;22.50;;;;;;;-0.64;100.00;101577.56;5038529;28;20213;-80
2023/01/26 09:21:25;;;;;;;66.30;23.63;;;;;;;-0.61;100.00;101572.34;5038244;28;20214;-80
2023/01/26 09:23:51;;;;;;;65.80;23.47;;;;;;;-0.58;100.00;101573.19;5038357;28;20206;-82
2023/01/26 09:26:18;;;;;;;70.60;25.47;;;;;;;-0.56;100.00;101581.03;5038249;28;20234;-79
2023/01/26 09:28:50;;;;;;;68.37;26.50;;;;;;;-0.54;100.00;101579.31;5038190;28;20232;-80
2023/01/26 09:31:16;;;;;;;61.60;23.67;;;;;;;-0.54;100.00;101571.44;5037528;28;20221;-80
2023/01/26 09:33:42;;;;;;;65.33;25.00;;;;;;;-0.53;100.00;101576.66;5037478;28;20213;-81
2023/01/26 09:36:11;;;;;;;72.23;26.23;;;;;;;-0.51;100.00;101561.81;5037727;28;20222;-81
2023/01/26 09:38:37;;;;;;;63.90;25.57;;;;;;;-0.49;100.00;101570.53;5037867;28;20694;-82
2023/01/26 09:41:07;;;;;;;65.10;25.70;;;;;;;-0.47;100.00;101567.91;5038139;28;20206;-80
2023/01/26 09:43:40;;;;;;;64.00;24.90;;;;;;;-0.43;100.00;101564.41;5038339;28;20247;-81
2023/01/26 09:46:20;;;;;;;68.27;25.53;;;;;;;-0.40;100.00;101559.19;5038393;28;20386;-81
2023/01/26 09:48:56;;;;;;;63.77;24.57;;;;;;;-0.36;100.00;101569.59;5036739;28;20214;-80
2023/01/26 09:51:28;;;;;;;65.67;26.27;;;;;;;-0.32;100.00;101572.22;5035550;28;20635;-79
2023/01/26 09:53:57;;;;;;;65.10;25.70;;;;;;;-0.31;100.00;101561.75;5035581;28;20198;-80
2023/01/26 09:56:28;;;;;;;67.37;26.03;;;;;;;-0.28;100.00;101560.88;5035596;28;20222;-81
2023/01/26 09:58:59;;;;;;;60.23;24.97;;;;;;;-0.25;100.00;101569.59;5035560;28;20190;-79
2023/01/26 10:01:36;;;;;;;60.87;23.47;;;;;;;-0.23;100.00;101557.34;5035428;28;20193;-80
2023/01/26 10:04:11;;;;;;;56.93;23.20;;;;;;;-0.21;100.00;101566.06;5035213;28;20206;-81
2023/01/26 10:06:38;;;;;;;64.30;23.77;;;;;;;-0.20;100.00;101567.81;5035175;28;20279;-80
2023/01/26 10:09:12;;;;;;;54.73;21.57;;;;;;;-0.19;100.00;101563.47;5035170;28;20226;-81
2023/01/26 10:11:43;;;;;;;60.77;22.67;;;;;;;-0.18;100.00;101558.19;5035145;28;20627;-81
2023/01/26 10:14:14;;;;;;;53.37;20.83;;;;;;;-0.16;100.00;101556.44;5035936;28;20669;-80
2023/01/26 10:16:45;;;;;;;57.83;23.10;;;;;;;-0.18;100.00;101552.94;5034563;28;20234;-81
2023/01/26 10:19:16;;;;;;;58.73;21.07;;;;;;;-0.18;100.00;101539.84;5035122;28;20717;-81
2023/01/26 10:21:47;;;;;;;57.37;22.70;;;;;;;-0.16;100.00;101542.47;5034565;28;20191;-81
2023/01/26 10:24:17;;;;;;;62.33;23.07;;;;;;;-0.15;100.00;101554.69;5035719;28;20195;-81
2023/01/26 10:26:43;;;;;;;63.73;24.77;;;;;;;-0.14;100.00;101557.28;5034997;28;20226;-81
2023/01/26 10:29:15;;;;;;;58.50;22.27;;;;;;;-0.13;100.00;101555.56;5035064;28;20233;-80
2023/01/26 10:31:44;;;;;;;62.00;22.53;;;;;;;-0.12;100.00;101558.16;5034629;28;20218;-80
2023/01/26 10:34:16;;;;;;;62.53;23.13;;;;;;;-0.10;100.00;101552.94;5035059;28;20202;-81
2023/01/26 10:36:44;;;;;;;60.90;23.43;;;;;;;-0.08;100.00;101553.78;5034509;28;20324;-80
2023/01/26 10:39:13;;;;;;;59.10;22.83;;;;;;;-0.06;100.00;101546.78;5034054;28;20213;-79
2023/01/26 10:41:39;;;;;;;57.97;22.73;;;;;;;-0.04;100.00;101550.28;5035010;28;20249;-79
2023/01/26 10:44:23;;;;;;;63.10;23.00;;;;;;;-0.03;100.00;101557.25;5033305;28;20218;-80
2023/01/26 10:47:04;;;;;;;59.33;22.90;;;;;;;-0.03;100.00;101550.28;5034336;28;20233;-79
2023/01/26 10:49:30;;;;;;;61.87;23.70;;;;;;;-0.01;100.00;101545.91;5020874;28;20238;-81
2023/01/26 10:52:14;;;;;;;104.37;43.53;;;;;;;0.03;100.00;101538.88;5014345;28;20213;-81
2023/01/26 10:54:42;;;;;;;78.13;31.03;;;;;;;0.07;100.00;101534.50;5017346;28;20193;-81
2023/01/26 10:57:17;;;;;;;75.63;31.83;;;;;;;0.08;100.00;101529.25;5033493;28;20241;-80
2023/01/26 10:59:49;;;;;;;62.27;26.37;;;;;;;0.10;100.00;101524.88;5033927;28;20634;-81
2023/01/26 11:02:26;;;;;;;59.90;24.80;;;;;;;0.14;100.00;101512.63;5034042;28;20205;-81
2023/01/26 11:05:15;;;;;;;64.60;24.60;;;;;;;0.16;100.00;101511.75;5034166;28;20255;-80
2023/01/26 11:07:43;;;;;;;46.30;21.27;;;;;;;0.18;100.00;101511.75;5033458;28;20206;-80
2023/01/26 11:10:19;;;;;;;65.70;28.37;;;;;;;0.20;100.00;101516.06;5033611;28;20218;-80
2023/01/26 11:12:45;;;;;;;63.00;28.93;;;;;;;0.23;100.00;101512.56;5033554;28;20209;-81
2023/01/26 11:15:16;;;;;;;48.33;20.50;;;;;;;0.26;100.00;101509.91;5032297;28;20217;-79
2023/01/26 11:17:51;;;;;;;61.20;25.13;;;;;;;0.28;100.00;101500.28;5033901;28;20210;-81
2023/01/26 11:20:46;;;;;;;56.40;24.13;;;;;;;0.31;100.00;101501.16;5032565;28;20193;-81
2023/01/26 11:23:22;;;;;;;99.63;49.80;;;;;;;0.34;100.00;101508.13;5032277;28;20198;-81
2023/01/26 11:26:08;;;;;;;55.07;25.33;;;;;;;0.36;100.00;101501.09;5032768;28;20233;-80
2023/01/26 11:28:46;;;;;;;61.70;24.37;;;;;;;0.38;100.00;101503.69;5032969;28;20204;-80
2023/01/26 11:31:21;;;;;;;59.13;24.97;;;;;;;0.38;100.00;101498.47;5031351;28;20205;-79
2023/01/26 11:33:59;;;;;;;56.00;23.27;;;;;;;0.38;99.65;101498.47;5036012;28;20212;-80
2023/01/26 11:36:36;;;;;;;57.37;23.87;;;;;;;0.37;99.39;101488.84;5039286;28;20568;-80
2023/01/26 11:39:13;;;;;;;58.70;25.67;;;;;;;0.40;99.66;101494.06;5045130;28;20247;-80
2023/01/26 11:41:52;;;;;;;57.07;23.80;;;;;;;0.43;99.63;101491.44;5032536;28;20206;-81
2023/01/26 11:44:51;;;;;;;59.27;25.57;;;;;;;0.44;99.26;101486.19;5031618;28;20202;-80
2023/01/26 11:47:27;;;;;;;48.00;21.07;;;;;;;0.46;99.19;101483.56;5042288;28;20419;-79
2023/01/26 11:50:10;;;;;;;53.53;20.53;;;;;;;0.48;99.13;101485.28;5044030;28;20214;-80
2023/01/26 11:52:46;;;;;;;46.63;19.87;;;;;;;0.49;98.93;101486.16;5032671;28;20205;-81
2023/01/26 11:55:28;;;;;;;48.30;21.70;;;;;;;0.49;98.77;101489.66;5037107;28;20615;-82
2023/01/26 11:58:10;;;;;;;50.20;20.73;;;;;;;0.48;98.83;101484.41;5049885;28;20210;-81
2023/01/26 12:00:41;;;;;;;45.23;19.90;;;;;;;0.49;98.73;101481.78;5033976;28;20183;-81